Time;durP1;ratioP1;P1;durP2;ratioP2;P2;SDS_P1;SDS_P2;PMS_P1;PMS_P2;Temp;Humidity;BMP_temperature;BMP_pressure;BME280_temperature;BME280_humidity;BME280_pressure;Samples;Min_cycle;Max_cycle;Signal;HPM_P1;HPM_P2
2023/08/27 00:00:28;;;;;;;75.00;8.67;;;18.60;47.90;;;;;;5041303;28;20204;-84
2023/08/27 00:02:57;;;;;;;72.47;8.63;;;18.60;45.50;;;;;;5041769;28;20401;-84
2023/08/27 00:05:22;;;;;;;75.63;7.90;;;18.60;45.90;;;;;;5041834;28;20396;-84
2023/08/27 00:07:48;;;;;;;71.17;6.60;;;18.60;47.50;;;;;;5041661;28;20951;-84
2023/08/27 00:10:15;;;;;;;71.47;8.07;;;18.50;50.20;;;;;;5042159;28;20727;-84
2023/08/27 00:12:40;;;;;;;73.60;10.60;;;18.50;50.10;;;;;;5042035;28;20166;-84
2023/08/27 00:15:07;;;;;;;72.97;10.90;;;18.40;51.70;;;;;;5023519;28;20453;-84
2023/08/27 00:17:32;;;;;;;72.87;9.97;;;18.40;52.10;;;;;;5041463;28;20542;-84
2023/08/27 00:19:58;;;;;;;73.37;10.87;;;18.50;52.60;;;;;;5041161;28;20527;-84
2023/08/27 00:22:24;;;;;;;72.57;9.77;;;18.40;54.30;;;;;;5023920;28;20219;-84
2023/08/27 00:24:49;;;;;;;76.10;12.50;;;18.40;53.90;;;;;;5040026;28;20168;-84
2023/08/27 00:27:15;;;;;;;72.37;11.23;;;18.40;55.00;;;;;;5041092;28;20165;-84
2023/08/27 00:29:41;;;;;;;72.90;10.47;;;18.30;56.10;;;;;;5023511;28;20673;-84
2023/08/27 00:32:07;;;;;;;72.87;8.93;;;18.30;57.90;;;;;;5023122;28;20170;-84
2023/08/27 00:34:35;;;;;;;71.20;9.30;;;18.30;56.10;;;;;;5041375;28;20660;-84
2023/08/27 00:37:01;;;;;;;72.47;11.47;;;18.20;58.70;;;;;;5040803;28;20169;-84
2023/08/27 00:39:29;;;;;;;75.97;16.47;;;18.10;62.70;;;;;;5108710;23;20986;-83
2023/08/27 00:41:55;;;;;;;74.87;16.60;;;18.00;69.00;;;;;;5038887;28;20446;-83
2023/08/27 00:44:21;;;;;;;74.90;17.97;;;18.10;66.60;;;;;;5039866;28;20392;-83
2023/08/27 00:46:50;;;;;;;74.77;17.33;;;18.10;64.40;;;;;;5040324;28;20415;-83
2023/08/27 00:49:16;;;;;;;72.87;10.77;;;18.20;59.70;;;;;;5022295;28;20543;-83
2023/08/27 00:51:44;;;;;;;73.03;13.50;;;18.20;57.10;;;;;;5039520;28;20399;-83
2023/08/27 00:54:11;;;;;;;74.77;17.27;;;18.20;58.00;;;;;;5039690;28;20404;-83
2023/08/27 00:56:38;;;;;;;73.97;17.03;;;18.20;59.60;;;;;;5005373;28;20783;-83
2023/08/27 00:59:04;;;;;;;75.20;18.50;;;18.10;60.30;;;;;;5039387;28;20401;-83
2023/08/27 01:01:30;;;;;;;75.93;18.27;;;18.10;61.00;;;;;;5039774;28;20415;-83
2023/08/27 01:03:56;;;;;;;74.47;17.27;;;18.10;60.70;;;;;;5040240;28;20164;-83
2023/08/27 01:06:22;;;;;;;73.70;14.27;;;18.20;56.90;;;;;;5040416;28;20400;-83
2023/08/27 01:09:30;;;;;;;78.80;16.57;;;18.20;55.10;;;;;;5039900;28;20176;-83
2023/08/27 01:12:03;;;;;;;73.43;13.73;;;18.30;52.80;;;;;;4943192;29;20168;-83
2023/08/27 01:14:33;;;;;;;72.97;10.77;;;18.30;52.90;;;;;;5031009;28;20912;-83
2023/08/27 01:17:03;;;;;;;73.87;13.93;;;18.10;56.90;;;;;;5039557;28;20431;-83
2023/08/27 01:19:30;;;;;;;76.80;20.07;;;18.10;57.30;;;;;;5038926;28;20451;-83
2023/08/27 01:21:55;;;;;;;76.07;20.30;;;18.00;61.10;;;;;;5039168;28;20745;-83
2023/08/27 01:24:21;;;;;;;75.67;19.80;;;18.00;61.30;;;;;;5039682;28;20407;-83
2023/08/27 01:27:12;;;;;;;73.57;15.50;;;18.00;59.80;;;;;;5039790;28;20529;-83
2023/08/27 01:29:48;;;;;;;74.17;15.47;;;18.00;56.70;;;;;;5039215;28;20193;-83
2023/08/27 01:32:51;;;;;;;77.07;20.50;;;18.00;54.90;;;;;;5040054;28;20395;-83
2023/08/27 01:35:17;;;;;;;75.07;19.37;;;18.00;57.60;;;;;;5022090;28;20415;-83
2023/08/27 01:37:44;;;;;;;78.93;19.83;;;17.90;58.00;;;;;;5039757;28;20911;-83
2023/08/27 01:40:10;;;;;;;77.57;22.67;;;17.90;59.60;;;;;;5038677;28;20201;-83
2023/08/27 01:42:36;;;;;;;76.27;22.40;;;17.80;62.90;;;;;;5039528;28;20499;-83
2023/08/27 01:45:09;;;;;;;84.77;24.40;;;17.80;61.60;;;;;;5038779;28;20476;-83
2023/08/27 01:47:34;;;;;;;77.20;24.87;;;17.80;62.50;;;;;;5038890;28;20384;-83
2023/08/27 01:50:00;;;;;;;77.50;21.97;;;17.80;62.00;;;;;;5021437;28;20436;-83
2023/08/27 01:52:26;;;;;;;76.20;23.40;;;17.80;62.50;;;;;;5038721;28;20168;-83
2023/08/27 01:54:51;;;;;;;76.50;22.77;;;17.80;63.40;;;;;;5038261;28;20166;-83
2023/08/27 01:57:17;;;;;;;77.60;23.80;;;17.80;59.50;;;;;;5038459;28;20169;-83
2023/08/27 01:59:43;;;;;;;77.80;25.67;;;17.80;61.70;;;;;;5038459;28;20193;-83
2023/08/27 02:02:08;;;;;;;77.63;24.80;;;17.70;66.00;;;;;;5038416;28;20185;-83
2023/08/27 02:04:34;;;;;;;79.40;25.83;;;17.70;66.40;;;;;;5038809;28;20185;-83
2023/08/27 02:07:00;;;;;;;78.07;23.30;;;17.70;65.30;;;;;;5038521;28;20621;-83
2023/08/27 02:09:25;;;;;;;76.70;23.47;;;17.70;67.20;;;;;;5038081;28;20192;-83
2023/08/27 02:11:52;;;;;;;78.47;24.17;;;17.70;66.50;;;;;;5038638;28;20169;-83
2023/08/27 02:14:18;;;;;;;77.80;20.43;;;17.70;67.80;;;;;;5038968;28;20784;-83
2023/08/27 02:16:44;;;;;;;77.87;27.20;;;17.70;69.10;;;;;;5037934;28;20414;-83
2023/08/27 02:19:13;;;;;;;77.77;19.40;;;17.70;67.50;;;;;;5020374;28;20169;-83
2023/08/27 02:21:38;;;;;;;76.20;21.17;;;17.70;70.20;;;;;;5038107;28;20193;-83
2023/08/27 02:24:04;;;;;;;77.20;21.47;;;17.60;72.30;;;;;;5020169;28;20416;-83
2023/08/27 02:26:30;;;;;;;77.17;22.73;;;17.60;74.10;;;;;;5038423;28;20165;-83
2023/08/27 02:31:23;;;;;;;76.60;19.40;;;17.30;83.90;;;;;;5201257;22;20216;-83
2023/08/27 02:33:49;;;;;;;76.97;23.00;;;17.30;87.30;;;;;;5063052;28;20433;-83
2023/08/27 02:36:15;;;;;;;76.57;21.90;;;17.30;87.30;;;;;;5063253;28;20248;-83
2023/08/27 02:38:41;;;;;;;76.00;20.03;;;17.40;82.40;;;;;;5062846;28;20200;-83
2023/08/27 02:41:10;;;;;;;79.57;21.50;;;17.40;82.20;;;;;;5063129;28;20406;-83
2023/08/27 02:43:35;;;;;;;75.83;21.10;;;17.50;82.10;;;;;;5045090;28;20451;-83
2023/08/27 02:46:02;;;;;;;81.63;32.27;;;17.40;83.60;;;;;;5062429;28;20412;-83
2023/08/27 02:48:27;;;;;;;79.93;31.37;;;17.40;84.30;;;;;;5044759;28;20227;-83
2023/08/27 02:50:53;;;;;;;78.63;28.20;;;17.40;85.20;;;;;;5062466;28;20423;-83
2023/08/27 02:53:18;;;;;;;80.70;33.13;;;17.40;86.90;;;;;;5062404;28;20218;-83
2023/08/27 02:55:45;;;;;;;81.00;30.67;;;17.40;87.50;;;;;;5063317;28;20652;-83
2023/08/27 02:58:10;;;;;;;83.30;39.57;;;17.30;89.70;;;;;;5045428;28;20172;-83
2023/08/27 03:00:40;;;;;;;81.17;35.73;;;17.30;91.50;;;;;;5063132;28;20522;-83
2023/08/27 03:03:05;;;;;;;82.13;40.27;;;17.40;89.30;;;;;;5062952;28;20196;-83
2023/08/27 03:05:31;;;;;;;81.97;35.20;;;17.40;91.20;;;;;;5062224;28;20413;-83
2023/08/27 03:07:57;;;;;;;87.30;42.07;;;17.30;92.20;;;;;;5062580;28;20544;-83
2023/08/27 03:10:22;;;;;;;92.43;54.10;;;17.30;93.70;;;;;;5063000;28;20666;-83
2023/08/27 03:12:48;;;;;;;103.73;66.60;;;17.30;93.60;;;;;;5062766;28;20176;-83
2023/08/27 03:15:14;;;;;;;94.43;57.23;;;17.30;94.10;;;;;;5062652;28;20168;-83
2023/08/27 03:17:39;;;;;;;83.47;41.20;;;17.20;95.40;;;;;;5062483;28;20222;-83
2023/08/27 03:20:05;;;;;;;94.33;60.83;;;17.20;96.50;;;;;;5062192;28;20656;-83
2023/08/27 03:22:31;;;;;;;98.80;65.70;;;17.10;98.40;;;;;;5063032;28;20188;-83
2023/08/27 03:25:00;;;;;;;89.90;52.50;;;17.10;99.90;;;;;;5062609;28;20801;-83
2023/08/27 03:27:25;;;;;;;100.10;66.20;;;17.10;98.80;;;;;;5062829;28;20167;-83
2023/08/27 03:29:51;;;;;;;91.13;61.70;;;17.00;99.90;;;;;;5062039;28;20513;-83
2023/08/27 03:32:17;;;;;;;85.50;47.87;;;17.00;99.90;;;;;;5060946;28;20211;-83
2023/08/27 03:34:42;;;;;;;99.23;71.10;;;16.90;99.90;;;;;;5062516;28;20259;-83
2023/08/27 03:37:08;;;;;;;99.30;69.73;;;16.90;99.90;;;;;;5044677;28;20184;-83
2023/08/27 03:39:34;;;;;;;92.77;67.63;;;16.90;99.90;;;;;;5062343;28;20193;-83
2023/08/27 03:41:59;;;;;;;112.77;100.23;;;16.90;99.90;;;;;;5061904;28;20223;-83
2023/08/27 03:44:25;;;;;;;105.43;92.17;;;16.90;99.90;;;;;;5062160;28;20188;-83
2023/08/27 03:46:50;;;;;;;99.83;80.90;;;16.90;99.90;;;;;;5061724;28;20165;-83
2023/08/27 03:49:16;;;;;;;109.83;98.33;;;16.80;99.90;;;;;;5061279;28;20714;-83
2023/08/27 03:51:42;;;;;;;119.60;107.30;;;16.70;99.90;;;;;;5062157;28;20193;-83
2023/08/27 03:54:08;;;;;;;138.43;125.27;;;16.70;99.90;;;;;;5062002;28;20167;-83
2023/08/27 03:56:34;;;;;;;128.87;116.53;;;16.70;99.90;;;;;;5062223;28;20157;-83
2023/08/27 03:58:59;;;;;;;131.60;119.10;;;16.70;99.90;;;;;;5061272;28;20412;-84
2023/08/27 04:01:25;;;;;;;132.23;119.70;;;16.70;99.90;;;;;;5062008;28;20179;-83
2023/08/27 04:03:53;;;;;;;134.53;121.77;;;16.70;99.90;;;;;;5061727;28;20168;-83
2023/08/27 04:06:18;;;;;;;133.17;120.63;;;16.70;99.90;;;;;;5061358;28;20161;-83
2023/08/27 04:08:44;;;;;;;122.40;110.37;;;16.70;99.90;;;;;;5061629;28;20422;-83
2023/08/27 04:11:11;;;;;;;130.33;117.80;;;16.70;99.90;;;;;;5061435;28;20180;-83
2023/08/27 04:13:37;;;;;;;133.57;121.10;;;16.60;99.90;;;;;;5044254;28;20176;-83
2023/08/27 04:16:06;;;;;;;124.57;112.53;;;16.70;99.90;;;;;;5061524;28;20478;-83
2023/08/27 04:18:34;;;;;;;116.30;104.60;;;16.70;99.90;;;;;;5064746;28;20682;-83
2023/08/27 04:21:01;;;;;;;119.80;107.93;;;16.70;99.90;;;;;;5064883;28;20443;-83
2023/08/27 04:23:27;;;;;;;124.10;112.03;;;16.70;99.90;;;;;;5065311;28;20410;-83
2023/08/27 04:25:53;;;;;;;128.87;116.57;;;16.80;99.90;;;;;;5064916;28;20402;-83
2023/08/27 04:28:20;;;;;;;119.50;107.63;;;16.80;99.90;;;;;;5065593;28;20763;-83
2023/08/27 04:30:49;;;;;;;111.47;99.97;;;16.90;99.90;;;;;;5065348;28;20431;-83
2023/08/27 04:33:16;;;;;;;103.27;92.03;;;16.90;99.90;;;;;;5047396;28;20499;-83
2023/08/27 04:35:44;;;;;;;109.10;97.50;;;16.80;99.90;;;;;;5064935;28;20465;-83
2023/08/27 04:38:10;;;;;;;103.60;92.40;;;17.00;99.90;;;;;;5064321;28;20404;-83
2023/08/27 04:40:36;;;;;;;98.43;82.23;;;17.00;99.90;;;;;;5064815;28;20443;-83
2023/08/27 04:43:02;;;;;;;95.47;75.20;;;17.10;99.90;;;;;;5064301;28;20503;-83
2023/08/27 04:45:27;;;;;;;90.40;60.73;;;17.00;99.90;;;;;;5065082;28;20169;-83
2023/08/27 04:47:54;;;;;;;99.00;83.47;;;17.00;99.90;;;;;;5064258;28;20184;-83
2023/08/27 04:50:20;;;;;;;97.50;84.63;;;17.10;99.90;;;;;;5065126;28;20191;-83
2023/08/27 04:52:45;;;;;;;89.43;61.07;;;17.10;99.90;;;;;;5064424;28;20490;-83
2023/08/27 04:55:11;;;;;;;87.30;54.60;;;17.10;99.90;;;;;;5064994;28;20251;-83
2023/08/27 04:57:37;;;;;;;90.53;61.57;;;17.10;99.90;;;;;;5063807;28;20183;-83
2023/08/27 05:00:07;;;;;;;88.67;58.63;;;17.10;99.90;;;;;;5064755;28;20199;-84
2023/08/27 05:02:33;;;;;;;96.17;65.37;;;17.20;99.00;;;;;;5030472;28;20490;-83
2023/08/27 05:04:59;;;;;;;88.57;56.00;;;17.20;98.30;;;;;;5064764;28;20403;-83
2023/08/27 05:07:25;;;;;;;95.83;66.77;;;17.20;99.20;;;;;;5064125;28;20761;-83
2023/08/27 05:09:50;;;;;;;89.67;58.80;;;17.20;99.00;;;;;;5064557;28;20180;-83
2023/08/27 05:12:16;;;;;;;92.33;63.50;;;17.20;99.40;;;;;;5064372;28;20505;-83
2023/08/27 05:14:42;;;;;;;103.93;89.37;;;17.30;99.30;;;;;;5064380;28;20168;-83
2023/08/27 05:17:07;;;;;;;96.60;75.30;;;17.30;99.90;;;;;;5064226;28;20169;-83
2023/08/27 05:19:33;;;;;;;105.93;92.23;;;17.30;99.90;;;;;;5063842;28;20232;-83
2023/08/27 05:22:00;;;;;;;116.27;104.10;;;17.30;99.90;;;;;;5063404;28;20161;-83
2023/08/27 05:24:26;;;;;;;98.30;84.00;;;17.30;99.90;;;;;;5063395;28;20164;-80
2023/08/27 05:26:52;;;;;;;121.20;108.80;;;17.30;99.90;;;;;;5063643;28;20456;-82
2023/08/27 05:29:17;;;;;;;105.67;91.83;;;17.30;99.90;;;;;;5062898;28;20192;-83
2023/08/27 05:31:49;;;;;;;107.23;95.67;;;17.30;99.90;;;;;;5063320;28;20184;-82
2023/08/27 05:34:15;;;;;;;114.57;102.63;;;17.30;99.90;;;;;;5064670;28;20156;-82
2023/08/27 05:36:40;;;;;;;123.07;110.90;;;17.20;99.90;;;;;;5063939;28;20395;-83
2023/08/27 05:39:06;;;;;;;117.60;105.47;;;17.20;99.90;;;;;;5063811;28;20161;-82
2023/08/27 05:41:32;;;;;;;124.30;112.20;;;17.20;99.90;;;;;;5045907;28;20256;-83
2023/08/27 05:43:58;;;;;;;119.07;107.07;;;17.20;99.90;;;;;;5063990;28;20583;-83
2023/08/27 05:46:24;;;;;;;111.80;100.10;;;17.20;99.90;;;;;;5063457;28;20430;-83
2023/08/27 05:48:50;;;;;;;116.97;105.20;;;17.20;99.90;;;;;;5045734;28;20399;-83
2023/08/27 05:51:15;;;;;;;108.00;96.50;;;17.10;99.90;;;;;;5063714;28;20216;-83
2023/08/27 05:53:42;;;;;;;112.10;100.50;;;17.10;99.90;;;;;;5063657;28;20415;-83
2023/08/27 05:56:08;;;;;;;101.23;87.20;;;17.10;99.90;;;;;;5062848;28;20176;-83
2023/08/27 05:58:34;;;;;;;101.97;89.90;;;17.10;99.90;;;;;;5045379;28;20468;-83
2023/08/27 06:01:01;;;;;;;109.00;97.43;;;17.10;99.90;;;;;;5059961;28;20447;-84
2023/08/27 06:03:26;;;;;;;104.40;84.10;;;17.10;99.90;;;;;;5130320;22;20174;-83
2023/08/27 06:08:20;;;;;;;106.57;95.10;;;17.20;99.90;;;;;;5042664;28;20216;-83
2023/08/27 06:10:45;;;;;;;107.17;92.67;;;17.20;99.90;;;;;;5058606;28;20411;-82
2023/08/27 06:13:11;;;;;;;110.97;90.33;;;17.30;99.90;;;;;;5063260;28;20161;-82
2023/08/27 06:15:40;;;;;;;101.87;89.03;;;17.30;99.90;;;;;;5059176;28;20169;-82
2023/08/27 06:18:07;;;;;;;100.33;85.20;;;17.30;99.90;;;;;;5063304;28;20248;-83
2023/08/27 06:20:33;;;;;;;101.50;83.80;;;17.40;99.90;;;;;;5063396;28;20961;-83
2023/08/27 06:23:00;;;;;;;106.27;81.60;;;17.50;99.90;;;;;;5062472;28;20498;-82
2023/08/27 06:25:25;;;;;;;102.67;78.33;;;17.60;99.90;;;;;;5060433;28;20431;-82
2023/08/27 06:27:54;;;;;;;98.70;77.03;;;17.60;99.90;;;;;;5057889;28;20910;-82
2023/08/27 06:30:23;;;;;;;101.43;78.03;;;17.70;99.90;;;;;;5040096;28;20427;-82
2023/08/27 06:32:49;;;;;;;101.57;85.50;;;17.80;99.90;;;;;;5057509;28;20399;-83
2023/08/27 06:35:15;;;;;;;108.73;94.77;;;17.80;99.90;;;;;;5056004;28;20399;-82
2023/08/27 06:37:40;;;;;;;102.70;90.70;;;17.90;99.90;;;;;;5055038;28;20834;-82
2023/08/27 06:40:07;;;;;;;104.23;83.43;;;18.00;99.90;;;;;;5158719;22;20219;-84
2023/08/27 06:42:42;;;;;;;105.83;80.63;;;18.00;99.90;;;;;;5079992;28;20369;-85
2023/08/27 06:45:09;;;;;;;108.47;93.60;;;18.10;99.90;;;;;;5098912;28;20464;-83
2023/08/27 06:47:35;;;;;;;105.23;89.03;;;18.10;99.90;;;;;;5080379;28;20465;-82
2023/08/27 06:50:04;;;;;;;106.27;94.53;;;18.20;99.90;;;;;;5097954;28;20453;-82
2023/08/27 06:52:31;;;;;;;101.37;88.37;;;18.20;99.90;;;;;;5079739;28;20397;-82
2023/08/27 06:54:58;;;;;;;98.87;83.10;;;18.30;99.90;;;;;;5079109;28;20405;-84
2023/08/27 06:57:43;;;;;;;101.17;89.40;;;18.30;99.90;;;;;;5097200;28;20429;-84
2023/08/27 07:00:12;;;;;;;88.50;54.23;;;18.20;99.90;;;;;;5078493;28;20471;-83
2023/08/27 07:02:41;;;;;;;87.50;49.20;;;18.30;99.90;;;;;;5097379;28;20492;-84
2023/08/27 07:05:10;;;;;;;106.63;91.33;;;18.20;99.90;;;;;;5079290;28;20405;-83
2023/08/27 07:07:40;;;;;;;94.47;74.20;;;18.20;99.90;;;;;;5080926;28;20428;-83
2023/08/27 07:10:14;;;;;;;112.77;100.77;;;18.10;99.90;;;;;;5100351;28;20932;-84
2023/08/27 07:12:40;;;;;;;93.17;63.87;;;18.10;99.90;;;;;;5079292;28;20438;-84
2023/08/27 07:15:22;;;;;;;86.00;49.70;;;18.20;99.90;;;;;;5097666;28;20401;-84
2023/08/27 07:17:48;;;;;;;81.07;34.07;;;18.20;99.90;;;;;;5097348;28;20406;-84
2023/08/27 07:20:14;;;;;;;84.50;38.60;;;18.40;99.90;;;;;;5096985;28;20543;-84
2023/08/27 07:22:40;;;;;;;80.40;28.20;;;18.40;99.90;;;;;;5079348;28;20413;-84
2023/08/27 07:25:06;;;;;;;76.90;25.87;;;18.50;99.90;;;;;;5097242;28;20223;-84
2023/08/27 07:27:33;;;;;;;76.37;22.03;;;18.50;99.90;;;;;;5096068;28;20599;-82
2023/08/27 07:29:59;;;;;;;77.83;27.63;;;18.50;99.90;;;;;;5078162;28;20949;-82
2023/08/27 07:32:25;;;;;;;78.50;23.80;;;18.50;99.90;;;;;;5096499;28;20406;-82
2023/08/27 07:34:51;;;;;;;75.90;19.63;;;18.50;99.90;;;;;;5096235;28;20163;-82
2023/08/27 07:37:16;;;;;;;74.37;16.77;;;18.60;99.90;;;;;;5096623;28;20664;-82
2023/08/27 07:39:42;;;;;;;73.80;17.63;;;18.60;99.10;;;;;;5096265;28;20551;-82
2023/08/27 07:42:08;;;;;;;75.00;16.87;;;18.60;97.40;;;;;;5095986;28;20159;-82
2023/08/27 07:44:33;;;;;;;74.27;15.13;;;18.60;97.10;;;;;;5077663;28;20589;-82
2023/08/27 07:46:59;;;;;;;75.40;16.43;;;18.80;93.30;;;;;;5096366;28;20389;-82
2023/08/27 07:49:25;;;;;;;74.10;16.23;;;18.80;90.60;;;;;;5077760;28;20670;-82
2023/08/27 07:51:50;;;;;;;74.67;17.03;;;18.70;93.80;;;;;;5079216;28;20176;-82
2023/08/27 07:54:16;;;;;;;74.50;16.93;;;18.80;94.20;;;;;;5081618;28;20654;-82
2023/08/27 07:56:42;;;;;;;74.80;17.67;;;18.80;96.40;;;;;;5082149;28;20167;-81
2023/08/27 07:59:09;;;;;;;73.67;16.10;;;18.90;95.10;;;;;;5082910;28;20167;-82
2023/08/27 08:01:34;;;;;;;75.20;18.67;;;19.00;93.60;;;;;;5081176;28;20163;-82
2023/08/27 08:04:00;;;;;;;74.37;17.23;;;18.90;93.50;;;;;;5099038;28;20405;-81
2023/08/27 08:06:25;;;;;;;75.07;14.50;;;18.90;92.10;;;;;;5081174;28;20163;-82
2023/08/27 08:08:51;;;;;;;77.77;15.07;;;19.00;90.90;;;;;;5100220;28;20175;-82
2023/08/27 08:11:17;;;;;;;75.17;16.57;;;19.00;86.40;;;;;;5080951;28;20233;-82
2023/08/27 08:13:45;;;;;;;74.80;15.27;;;18.90;91.60;;;;;;5081963;28;20163;-82
2023/08/27 08:16:11;;;;;;;76.67;17.17;;;19.00;84.60;;;;;;5099247;28;20152;-82
2023/08/27 08:18:36;;;;;;;73.80;14.93;;;19.10;85.80;;;;;;5099786;28;20440;-81
2023/08/27 08:21:02;;;;;;;75.60;19.80;;;19.00;86.90;;;;;;5099460;28;20608;-82
2023/08/27 08:23:28;;;;;;;74.17;15.33;;;19.10;84.60;;;;;;5099742;28;20699;-81
2023/08/27 08:25:54;;;;;;;81.67;25.50;;;19.10;85.70;;;;;;5081051;28;20595;-82
2023/08/27 08:28:20;;;;;;;75.43;19.10;;;19.00;93.50;;;;;;5081546;28;20416;-82
2023/08/27 08:30:48;;;;;;;74.70;17.27;;;19.00;93.40;;;;;;5100240;28;20262;-82
2023/08/27 08:33:15;;;;;;;76.40;21.33;;;19.10;94.80;;;;;;5100167;28;20144;-81
2023/08/27 08:35:41;;;;;;;76.20;14.47;;;19.10;92.90;;;;;;5099317;28;20397;-81
2023/08/27 08:38:07;;;;;;;76.53;19.60;;;19.20;92.60;;;;;;5099303;28;20484;-82
2023/08/27 08:40:44;;;;;;;74.50;16.97;;;19.20;86.80;;;;;;5099555;28;20937;-82
2023/08/27 08:43:17;;;;;;;75.10;16.77;;;19.20;89.60;;;;;;5099812;28;20151;-82
2023/08/27 08:45:51;;;;;;;75.40;17.20;;;19.40;91.20;;;;;;5100271;28;20374;-82
2023/08/27 08:48:22;;;;;;;78.60;19.00;;;19.40;93.20;;;;;;5099392;28;20406;-82
2023/08/27 08:50:49;;;;;;;75.97;17.47;;;19.40;90.70;;;;;;5099393;28;20480;-82
2023/08/27 08:53:17;;;;;;;76.67;15.97;;;19.50;87.80;;;;;;5099557;28;20408;-81
2023/08/27 08:55:46;;;;;;;76.80;19.67;;;19.60;89.40;;;;;;5081914;28;20825;-82
2023/08/27 08:58:13;;;;;;;76.90;20.37;;;19.70;83.30;;;;;;5081802;28;20405;-82
2023/08/27 09:00:40;;;;;;;77.30;20.83;;;19.70;78.60;;;;;;5085849;28;21004;-84
2023/08/27 09:03:06;;;;;;;77.50;21.53;;;19.80;71.90;;;;;;5099308;28;20422;-82
2023/08/27 09:05:33;;;;;;;73.60;14.27;;;19.80;66.70;;;;;;5098915;28;20404;-82
2023/08/27 09:08:00;;;;;;;73.40;11.70;;;19.90;59.90;;;;;;5081107;28;20773;-82
2023/08/27 09:10:27;;;;;;;71.10;7.07;;;19.90;53.40;;;;;;5081007;28;20866;-82
2023/08/27 09:12:58;;;;;;;73.53;7.13;;;19.90;51.50;;;;;;5099053;28;20488;-82
2023/08/27 09:15:24;;;;;;;71.60;6.63;;;20.00;45.80;;;;;;5099683;28;20373;-83
2023/08/27 09:17:50;;;;;;;75.70;7.30;;;20.00;45.30;;;;;;5099930;28;20773;-83
2023/08/27 09:20:16;;;;;;;73.70;7.43;;;20.10;31.50;;;;;;5099319;28;20445;-83
2023/08/27 09:22:42;;;;;;;74.63;7.67;;;20.10;42.20;;;;;;5099210;28;20414;-83
2023/08/27 09:25:09;;;;;;;71.07;6.70;;;20.10;39.60;;;;;;5100613;28;20780;-82
2023/08/27 09:27:36;;;;;;;73.00;9.00;;;20.10;38.20;;;;;;5080153;28;20404;-82
2023/08/27 09:30:03;;;;;;;71.77;8.53;;;20.20;30.80;;;;;;5081856;28;20462;-82
2023/08/27 09:32:32;;;;;;;72.60;8.20;;;20.20;25.30;;;;;;5099921;28;20776;-82
2023/08/27 09:35:03;;;;;;;72.00;8.07;;;20.10;30.90;;;;;;5099564;28;20818;-83
2023/08/27 09:37:38;;;;;;;74.03;6.60;;;20.10;36.40;;;;;;5099834;28;20387;-82
2023/08/27 09:40:11;;;;;;;71.80;6.50;;;20.00;42.10;;;;;;5099636;28;20468;-83
2023/08/27 09:42:38;;;;;;;74.00;7.67;;;19.90;42.70;;;;;;5099153;28;20516;-82
2023/08/27 09:45:04;;;;;;;71.07;6.23;;;19.90;35.80;;;;;;5099186;28;20393;-83
2023/08/27 09:47:31;;;;;;;74.67;9.53;;;19.90;39.00;;;;;;5099458;28;20387;-82
2023/08/27 09:49:58;;;;;;;72.30;8.63;;;19.90;36.70;;;;;;5098908;28;20414;-83
2023/08/27 09:52:25;;;;;;;73.57;10.10;;;20.10;35.20;;;;;;5080976;28;20405;-82
2023/08/27 09:54:52;;;;;;;72.07;7.80;;;20.20;23.70;;;;;;5078766;28;20405;-82
2023/08/27 09:57:19;;;;;;;73.27;8.83;;;20.20;27.20;;;;;;5097202;28;20409;-82
2023/08/27 09:59:47;;;;;;;74.40;9.77;;;20.30;25.50;;;;;;5096881;28;20462;-82
2023/08/27 10:02:14;;;;;;;72.30;9.80;;;20.40;20.10;;;;;;5098702;28;20881;-81
2023/08/27 10:04:53;;;;;;;76.80;11.60;;;20.70;22.30;;;;;;5098564;28;20923;-82
2023/08/27 10:07:19;;;;;;;73.87;8.67;;;20.90;17.60;;;;;;5079290;28;20929;-82
2023/08/27 10:09:53;;;;;;;72.00;8.53;;;21.10;11.20;;;;;;5097735;28;20428;-83
2023/08/27 10:12:21;;;;;;;74.30;10.20;;;21.20;7.40;;;;;;5080007;28;20412;-83
2023/08/27 10:14:47;;;;;;;76.57;14.27;;;21.50;3.10;;;;;;5098059;28;20406;-82
2023/08/27 10:17:15;;;;;;;81.80;16.20;;;21.70;1.00;;;;;;5079665;28;20408;-82
2023/08/27 10:19:42;;;;;;;77.07;16.10;;;21.80;1.00;;;;;;5097674;28;20445;-83
2023/08/27 10:22:08;;;;;;;74.67;16.57;;;21.70;1.00;;;;;;5098372;28;20404;-82
2023/08/27 10:24:34;;;;;;;75.00;16.93;;;21.50;1.00;;;;;;5079499;28;20409;-83
2023/08/27 10:27:04;;;;;;;74.80;13.57;;;21.20;1.00;;;;;;5097823;28;20795;-83
2023/08/27 10:29:34;;;;;;;73.90;15.83;;;21.20;1.00;;;;;;5097727;28;20417;-83
2023/08/27 10:31:59;;;;;;;76.63;19.30;;;21.10;1.00;;;;;;5079270;28;20409;-82
2023/08/27 10:34:30;;;;;;;78.50;20.53;;;21.00;1.00;;;;;;5097900;28;20399;-83
2023/08/27 10:37:02;;;;;;;77.53;21.43;;;21.00;1.00;;;;;;5097888;28;20150;-83
2023/08/27 10:39:31;;;;;;;74.47;17.13;;;21.10;1.00;;;;;;5097231;28;20790;-82
2023/08/27 10:41:57;;;;;;;74.47;17.70;;;21.20;1.00;;;;;;5097736;28;20456;-83
2023/08/27 10:44:22;;;;;;;75.97;19.70;;;21.20;1.00;;;;;;5097445;28;20397;-82
2023/08/27 10:47:07;;;;;;;77.00;21.03;;;21.30;1.00;;;;;;5097268;28;20523;-82
2023/08/27 10:49:38;;;;;;;75.07;10.10;;;21.30;1.00;;;;;;5079628;28;20277;-81
2023/08/27 10:52:17;;;;;;;72.00;9.50;;;21.40;1.00;;;;;;5078858;28;20405;-82
2023/08/27 10:54:46;;;;;;;72.90;10.80;;;21.70;1.00;;;;;;5080073;28;20385;-82
2023/08/27 10:57:23;;;;;;;73.43;10.10;;;21.90;1.00;;;;;;5079370;28;20408;-81
2023/08/27 10:59:52;;;;;;;71.60;8.83;;;22.00;1.00;;;;;;5097131;28;20860;-82
2023/08/27 11:02:18;;;;;;;71.93;9.77;;;22.10;1.00;;;;;;5077916;28;20844;-83
2023/08/27 11:04:49;;;;;;;73.60;10.80;;;22.20;1.00;;;;;;5078992;28;20432;-82
2023/08/27 11:07:17;;;;;;;72.27;10.37;;;22.50;1.00;;;;;;5079572;28;20393;-83
2023/08/27 11:10:04;;;;;;;71.80;8.57;;;22.70;1.00;;;;;;5079106;28;20482;-82
2023/08/27 11:12:36;;;;;;;71.50;8.60;;;23.20;1.00;;;;;;5097011;28;20445;-82
2023/08/27 11:15:26;;;;;;;79.87;10.90;;;23.70;1.00;;;;;;5096709;28;20397;-83
2023/08/27 11:17:51;;;;;;;71.30;5.20;;;23.80;1.00;;;;;;5097281;28;20838;-82
2023/08/27 11:20:37;;;;;;;72.40;6.33;;;23.90;1.00;;;;;;5096555;28;20441;-83
2023/08/27 11:23:08;;;;;;;73.03;7.00;;;24.40;1.00;;;;;;5097254;28;20707;-82
2023/08/27 11:25:36;;;;;;;73.40;13.77;;;24.50;1.00;;;;;;5095825;28;20389;-83
2023/08/27 11:28:04;;;;;;;76.77;22.97;;;24.80;1.00;;;;;;5096862;28;20402;-83
2023/08/27 11:30:30;;;;;;;76.50;21.93;;;24.60;1.00;;;;;;5097974;28;20464;-83
2023/08/27 11:32:56;;;;;;;79.33;30.17;;;24.70;1.00;;;;;;5095185;28;20397;-82
2023/08/27 11:35:23;;;;;;;79.37;26.80;;;24.80;1.00;;;;;;5096549;28;20408;-82
2023/08/27 11:37:53;;;;;;;77.87;25.77;;;25.00;1.00;;;;;;5097357;28;20406;-81
2023/08/27 11:40:26;;;;;;;79.37;27.20;;;25.10;1.00;;;;;;5078617;28;20545;-80
2023/08/27 11:42:54;;;;;;;79.87;29.50;;;25.10;1.00;;;;;;5079990;28;20390;-80
2023/08/27 11:45:30;;;;;;;72.57;3.17;;;25.10;1.00;;;;;;5099124;28;20403;-81
2023/08/27 11:47:57;;;;;;;71.10;4.10;;;25.30;1.00;;;;;;5079533;28;20432;-81
2023/08/27 11:50:23;;;;;;;72.63;6.20;;;25.50;1.00;;;;;;5079412;28;20444;-82
2023/08/27 11:52:49;;;;;;;72.20;3.50;;;25.40;1.00;;;;;;5098089;28;20908;-81
2023/08/27 11:55:21;;;;;;;71.40;6.33;;;25.20;1.00;;;;;;5079565;28;20169;-81
2023/08/27 11:57:47;;;;;;;70.20;3.27;;;25.00;1.00;;;;;;5079050;28;20405;-82
2023/08/27 12:00:13;;;;;;;72.07;6.17;;;24.90;1.00;;;;;;5097020;28;20455;-81
2023/08/27 12:02:39;;;;;;;72.47;3.00;;;24.80;1.00;;;;;;5079027;28;20173;-82
2023/08/27 12:05:08;;;;;;;73.50;3.00;;;24.60;1.00;;;;;;5097318;28;20796;-81
2023/08/27 12:07:35;;;;;;;70.67;2.90;;;24.50;1.00;;;;;;5097922;28;20490;-82
2023/08/27 12:10:23;;;;;;;70.27;2.97;;;24.20;1.00;;;;;;5063869;28;20443;-82
2023/08/27 12:13:46;;;;;;;70.87;2.93;;;24.00;1.00;;;;;;5078685;28;20769;-82
2023/08/27 12:16:29;;;;;;;74.77;6.47;;;23.80;1.00;;;;;;5055091;28;20531;-81
2023/08/27 12:19:06;;;;;;;70.10;4.60;;;23.70;1.00;;;;;;5097132;28;20382;-82
2023/08/27 12:21:45;;;;;;;73.20;12.77;;;23.50;1.00;;;;;;5096712;28;20472;-81
2023/08/27 12:24:35;;;;;;;75.97;21.83;;;23.50;1.00;;;;;;5096888;28;20904;-81
2023/08/27 12:27:16;;;;;;;71.93;7.23;;;23.60;1.00;;;;;;5098402;28;20390;-81
2023/08/27 12:29:44;;;;;;;70.20;4.33;;;23.90;1.00;;;;;;5097502;28;20472;-80
2023/08/27 12:32:16;;;;;;;70.03;3.07;;;23.90;1.00;;;;;;5095204;28;20416;-81
2023/08/27 12:34:45;;;;;;;70.77;3.63;;;24.00;1.00;;;;;;5096724;28;20385;-80
2023/08/27 12:37:12;;;;;;;70.70;3.23;;;23.90;1.00;;;;;;5096852;28;20397;-81